Historyczne dane pomiarowe

Dodano dane terminowe – wersja testowa.

Dane z okresu 1951-2019

Wersja bazy: 1.34 [2019-03-16, lista zmian], aktualizacja planowana na 2019-04-15

Dane meteo z obszaru Polski uzyskane na podstawie danych udostępnionych przez Instytut Meteorologii i Gospodarki Wodnej – Państwowy Instytut Badawczy.

 

Wybierz Datę:    

       

TemperaturaWilgotnośćWiatrCiśnienieOpadyŚniegCzas trwania zjawisk
 Stacja t tx tn tng RH VA  wxwx mslp ppp RRR   cm mm wxwxwxwxwxwxwx
1972-06-13 20.7 25.8 14.8- 73.5- 5.3 2.0---- 0.4------------
1972-06-14 20.5 28.4 10.8- 74.5- 4.0 4.3---- 0.0------------
1972-06-15 20.3 26.8 12.2- 71.8- 3.7 3.7---- 4.4------------
1972-06-16 16.5 24.2 11.3- 79.8- 4.7 4.7---- 9.4------------
1972-06-17 14.8 19.2 10.1- 70.0- 3.3 3.7---- 0.0------------
1972-06-18 14.8 21.0 6.6- 73.8- 2.3 1.3---- 0.0------------
1972-06-19 16.9 24.2 9.7- 69.3- 1.3 2.0---- 0.0------------
1972-06-20 15.8 23.7 7.4- 74.0- 2.7 3.0---- 0.0------------
1972-06-21 14.1 20.6 5.1- 59.5- 0.7 2.7---- 0.0------------
1972-06-22 17.3 25.9 7.2- 67.8- 1.7 3.3---- 0.0------------
1972-06-23 19.9 26.8 14.4- 72.3- 5.0 3.0---- 14.9------------
1972-06-24 11.5 17.8 9.8- 93.0- 8.0 3.3---- 22.2------------
1972-06-25 9.7 12.8 8.1- 87.3- 8.0 4.7---- 14.8------------
1972-06-26 11.6 16.8 7.5- 78.8- 6.3 2.7---- 4.8------------
1972-06-27 11.2 14.6 8.6- 94.3- 6.0 2.0---- 14.2------------
1972-06-28 12.7 17.7 6.8- 92.3- 6.7 4.3---- 8.0------------
1972-06-29 17.4 24.6 12.1- 82.5- 6.0 3.0---- 0.0------------
1972-06-30 18.8 24.6 10.4- 76.5- 2.0 1.7---- 0.0------------
1972-07-01 14.5 23.7 11.4- 92.0- 8.0 4.7---- 3.5------------
1972-07-02 11.9 13.0 10.8- 92.8- 8.0 2.7---- 6.5------------
1972-07-03 15.4 20.3 11.6- 76.5- 5.3 5.0---- 0.0------------
1972-07-04 13.8 17.8 9.3- 86.8- 7.3 3.7---- 0.0------------
1972-07-05 15.5 20.9 10.2- 78.0- 3.7 1.7---- 0.0------------
1972-07-06 16.3 23.4 7.9- 70.8- 4.3 1.0---- 0.0------------
1972-07-07 17.0 26.5 9.0- 74.0- 2.7 2.7---- 0.0------------
1972-07-08 18.8 23.7 14.8- 72.0- 6.3 4.0---- 0.0------------
1972-07-09 20.2 26.3 12.4- 72.8- 3.7 0.0---- 0.0------------
1972-07-10 19.4 25.6 11.8- 73.0- 2.0 2.7---- 0.0------------
1972-07-11 14.4 20.4 10.0- 91.0- 7.7 5.7---- 5.9------------
1972-07-12 12.3 13.4 9.9- 93.0- 7.0 5.3---- 1.6------------
147.0 ms

 

Źródłem pochodzenia danych jest Instytut Meteorologii i Gospodarki Wodnej – Państwowy Instytut Badawczy. Dane Instytutu Meteorologii i Gospodarki Wodnej – Państwowego Instytutu Badawczego zostały przetworzone.

Dane źródłowe można odnaleźć na stronie https://dane.imgw.pl